TOM1EA GCTS-EGCC
Flight info
| Callsign | TOM1EA |
|---|---|
| Flight time | 3h 27m |
| Altitude | 40000 |
| Route | KONBA UN866 BEXAL DCT ORSOS DCT AGADO DCT KORUL DCT KOLEK DCT EBOMO DCT RUSIB DCT NOZHU DCT SHIRI DCT TOJAQ DCT EPACE DCT ACCOP DCT MOCQO P16 AXCIS |
| Aircraft | B789/H-SDE1E2E3FGHIJ2J3J4J5M1RWXY/LB1D1 |
Departure
| Time | 2026-05-06 18:56 |
|---|---|
| Airport | Tenerife Sur Airport (GCTS) |
Arrival
| Time | 2026-05-06 22:24 |
|---|---|
| Airport | Manchester Airport (EGCC) |
| Time | Latitude | Longitude | Altitude | Speed | Heading |
|---|---|---|---|---|---|
| 2026-05-06 18:44 | 28.04450 | -16.58064 | 217 ft | 0 kts | 338° |
| 2026-05-06 18:47 | 28.04447 | -16.58063 | 216 ft | 3 kts | 337° |
| 2026-05-06 18:47 | 28.04424 | -16.58049 | 213 ft | 5 kts | 320° |
| 2026-05-06 18:47 | 28.04406 | -16.58027 | 210 ft | 5 kts | 298° |
| 2026-05-06 18:47 | 28.04397 | -16.57999 | 209 ft | 5 kts | 277° |
| 2026-05-06 18:48 | 28.04396 | -16.57969 | 209 ft | 5 kts | 261° |
| 2026-05-06 18:48 | 28.04402 | -16.57939 | 209 ft | 5 kts | 251° |
| 2026-05-06 18:48 | 28.04412 | -16.57911 | 210 ft | 5 kts | 245° |
| 2026-05-06 18:48 | 28.04423 | -16.57886 | 211 ft | 3 kts | 247° |
| 2026-05-06 18:49 | 28.04423 | -16.57885 | 211 ft | 4 kts | 247° |
| 2026-05-06 18:52 | 28.04413 | -16.57912 | 210 ft | 8 kts | 249° |
| 2026-05-06 18:53 | 28.04379 | -16.58008 | 208 ft | 20 kts | 248° |
| 2026-05-06 18:53 | 28.04305 | -16.58198 | 209 ft | 28 kts | 247° |
| 2026-05-06 18:53 | 28.04232 | -16.58399 | 209 ft | 27 kts | 248° |
| 2026-05-06 18:53 | 28.04176 | -16.58589 | 212 ft | 25 kts | 250° |
| 2026-05-06 18:54 | 28.04112 | -16.58771 | 209 ft | 25 kts | 249° |
| 2026-05-06 18:54 | 28.04051 | -16.58954 | 206 ft | 24 kts | 240° |
| 2026-05-06 18:54 | 28.03952 | -16.58951 | 204 ft | 14 kts | 131° |
| 2026-05-06 18:54 | 28.03908 | -16.58854 | 205 ft | 13 kts | 101° |
| 2026-05-06 18:55 | 28.03922 | -16.58749 | 206 ft | 15 kts | 75° |
| 2026-05-06 18:55 | 28.03928 | -16.58726 | 206 ft | 1 kts | 72° |
| 2026-05-06 18:55 | 28.03962 | -16.58635 | 206 ft | 39 kts | 67° |
| 2026-05-06 18:55 | 28.04170 | -16.58045 | 206 ft | 120 kts | 69° |
| 2026-05-06 18:56 | 28.04568 | -16.56918 | 247 ft | 182 kts | 67° |
| 2026-05-06 18:56 | 28.05093 | -16.55523 | 780 ft | 202 kts | 65° |
| 2026-05-06 18:56 | 28.05663 | -16.53969 | 1554 ft | 229 kts | 69° |
| 2026-05-06 18:56 | 28.06236 | -16.52177 | 2312 ft | 256 kts | 71° |
| 2026-05-06 18:57 | 28.06910 | -16.50109 | 2520 ft | 303 kts | 69° |
| 2026-05-06 18:57 | 28.07726 | -16.47789 | 2686 ft | 326 kts | 68° |
| 2026-05-06 18:57 | 28.08585 | -16.45356 | 2901 ft | 337 kts | 69° |
| 2026-05-06 18:57 | 28.09307 | -16.42818 | 3097 ft | 341 kts | 71° |
| 2026-05-06 18:58 | 28.10177 | -16.40323 | 3284 ft | 343 kts | 68° |
| 2026-05-06 18:58 | 28.11061 | -16.37813 | 3461 ft | 344 kts | 69° |
| 2026-05-06 18:58 | 28.11876 | -16.35250 | 3758 ft | 345 kts | 71° |
| 2026-05-06 18:58 | 28.12677 | -16.32678 | 4050 ft | 346 kts | 70° |
| 2026-05-06 18:59 | 28.13814 | -16.30285 | 4302 ft | 349 kts | 49° |
| 2026-05-06 18:59 | 28.15729 | -16.28644 | 4709 ft | 349 kts | 25° |
| 2026-05-06 18:59 | 28.18067 | -16.27865 | 5144 ft | 352 kts | 11° |
| 2026-05-06 18:59 | 28.20484 | -16.27388 | 5588 ft | 355 kts | 9° |
| 2026-05-06 19:00 | 28.22915 | -16.26842 | 6028 ft | 357 kts | 13° |
| 2026-05-06 19:00 | 28.25316 | -16.26070 | 6463 ft | 360 kts | 17° |
| 2026-05-06 19:00 | 28.27723 | -16.25248 | 6898 ft | 362 kts | 15° |
| 2026-05-06 19:00 | 28.29336 | -16.24749 | 7184 ft | 364 kts | 14° |
| 2026-05-06 19:01 | 28.32633 | -16.23790 | 7760 ft | 367 kts | 14° |
| 2026-05-06 19:01 | 28.35113 | -16.23038 | 8189 ft | 371 kts | 15° |
| 2026-05-06 19:01 | 28.37609 | -16.22260 | 8618 ft | 373 kts | 15° |
| 2026-05-06 19:01 | 28.40123 | -16.21487 | 9046 ft | 376 kts | 15° |
| 2026-05-06 19:02 | 28.42656 | -16.20718 | 9474 ft | 378 kts | 14° |
| 2026-05-06 19:02 | 28.45208 | -16.19940 | 9900 ft | 381 kts | 15° |
| 2026-05-06 19:02 | 28.47772 | -16.19153 | 10327 ft | 384 kts | 15° |
| 2026-05-06 19:02 | 28.50356 | -16.18360 | 10754 ft | 387 kts | 15° |
| 2026-05-06 19:03 | 28.52966 | -16.17561 | 11181 ft | 389 kts | 15° |
| 2026-05-06 19:03 | 28.55593 | -16.16756 | 11609 ft | 392 kts | 15° |
| 2026-05-06 19:03 | 28.58236 | -16.15945 | 12034 ft | 395 kts | 15° |
| 2026-05-06 19:03 | 28.60900 | -16.15127 | 12461 ft | 398 kts | 15° |
| 2026-05-06 19:04 | 28.63548 | -16.14314 | 12882 ft | 401 kts | 15° |
| 2026-05-06 19:04 | 28.66250 | -16.13484 | 13308 ft | 404 kts | 15° |
| 2026-05-06 19:04 | 28.68971 | -16.12648 | 13734 ft | 407 kts | 15° |
| 2026-05-06 19:04 | 28.71717 | -16.11803 | 14162 ft | 410 kts | 15° |
| 2026-05-06 19:05 | 28.74477 | -16.10953 | 14587 ft | 412 kts | 15° |
| 2026-05-06 19:05 | 28.77257 | -16.10098 | 15014 ft | 415 kts | 15° |
| 2026-05-06 19:05 | 28.80057 | -16.09235 | 15440 ft | 419 kts | 15° |
| 2026-05-06 19:05 | 28.82875 | -16.08367 | 15866 ft | 422 kts | 15° |
| 2026-05-06 19:06 | 28.85723 | -16.07488 | 16293 ft | 425 kts | 15° |
| 2026-05-06 19:06 | 28.88588 | -16.06604 | 16719 ft | 428 kts | 15° |
| 2026-05-06 19:06 | 28.91474 | -16.05713 | 17146 ft | 431 kts | 15° |
| 2026-05-06 19:06 | 28.94377 | -16.04816 | 17572 ft | 435 kts | 15° |
| 2026-05-06 19:07 | 28.97307 | -16.03910 | 17998 ft | 437 kts | 15° |
| 2026-05-06 19:07 | 28.99301 | -16.03293 | 18287 ft | 440 kts | 15° |
| 2026-05-06 19:07 | 29.03228 | -16.02078 | 18851 ft | 444 kts | 15° |
| 2026-05-06 19:07 | 29.06223 | -16.01151 | 19277 ft | 447 kts | 15° |
| 2026-05-06 19:08 | 29.09227 | -16.00220 | 19702 ft | 448 kts | 15° |
| 2026-05-06 19:08 | 29.12244 | -15.99284 | 20125 ft | 450 kts | 15° |
| 2026-05-06 19:08 | 29.14286 | -15.98651 | 20411 ft | 450 kts | 15° |
| 2026-05-06 19:08 | 29.17270 | -15.97725 | 20826 ft | 451 kts | 15° |
| 2026-05-06 19:09 | 29.20299 | -15.96784 | 21247 ft | 451 kts | 15° |
| 2026-05-06 19:09 | 29.23327 | -15.95843 | 21666 ft | 451 kts | 15° |
| 2026-05-06 19:09 | 29.26357 | -15.94901 | 22085 ft | 452 kts | 15° |
| 2026-05-06 19:09 | 29.29392 | -15.93956 | 22503 ft | 452 kts | 15° |
| 2026-05-06 19:10 | 29.32427 | -15.93012 | 22920 ft | 451 kts | 15° |
| 2026-05-06 19:10 | 29.35477 | -15.92061 | 23339 ft | 451 kts | 15° |
| 2026-05-06 19:10 | 29.38474 | -15.91127 | 23751 ft | 451 kts | 15° |
| 2026-05-06 19:10 | 29.41500 | -15.90183 | 24167 ft | 450 kts | 15° |
| 2026-05-06 19:11 | 29.44522 | -15.89241 | 24581 ft | 450 kts | 15° |
| 2026-05-06 19:11 | 29.47537 | -15.88299 | 24995 ft | 449 kts | 15° |
| 2026-05-06 19:11 | 29.50554 | -15.87356 | 25409 ft | 448 kts | 15° |
| 2026-05-06 19:11 | 29.53557 | -15.86417 | 25821 ft | 447 kts | 15° |
| 2026-05-06 19:12 | 29.56558 | -15.85478 | 26233 ft | 446 kts | 15° |
| 2026-05-06 19:12 | 29.59549 | -15.84542 | 26645 ft | 444 kts | 15° |
| 2026-05-06 19:12 | 29.62524 | -15.83610 | 27054 ft | 443 kts | 15° |
| 2026-05-06 19:12 | 29.65495 | -15.82678 | 27464 ft | 442 kts | 15° |
| 2026-05-06 19:13 | 29.68454 | -15.81750 | 27872 ft | 440 kts | 15° |
| 2026-05-06 19:13 | 29.71401 | -15.80826 | 28280 ft | 439 kts | 15° |
| 2026-05-06 19:13 | 29.74340 | -15.79903 | 28687 ft | 437 kts | 15° |
| 2026-05-06 19:13 | 29.77266 | -15.78983 | 29093 ft | 435 kts | 15° |
| 2026-05-06 19:14 | 29.80186 | -15.78065 | 29500 ft | 434 kts | 15° |
| 2026-05-06 19:14 | 29.83089 | -15.77152 | 29904 ft | 432 kts | 15° |
| 2026-05-06 19:14 | 29.85982 | -15.76241 | 30309 ft | 430 kts | 15° |
| 2026-05-06 19:14 | 29.88857 | -15.75336 | 30712 ft | 428 kts | 15° |
| 2026-05-06 19:15 | 29.91724 | -15.74432 | 31115 ft | 426 kts | 15° |
| 2026-05-06 19:15 | 29.94576 | -15.73533 | 31516 ft | 424 kts | 15° |
| 2026-05-06 19:15 | 29.97414 | -15.72637 | 31918 ft | 422 kts | 15° |
| 2026-05-06 19:15 | 30.00232 | -15.71748 | 32317 ft | 419 kts | 15° |
| 2026-05-06 19:16 | 30.03038 | -15.70861 | 32715 ft | 417 kts | 15° |
| 2026-05-06 19:16 | 30.05827 | -15.69980 | 33112 ft | 414 kts | 15° |
| 2026-05-06 19:16 | 30.08597 | -15.69104 | 33508 ft | 411 kts | 15° |
| 2026-05-06 19:16 | 30.11310 | -15.68245 | 33896 ft | 408 kts | 15° |
| 2026-05-06 19:17 | 30.14038 | -15.67381 | 34287 ft | 405 kts | 15° |
| 2026-05-06 19:17 | 30.16743 | -15.66524 | 34676 ft | 401 kts | 15° |
| 2026-05-06 19:17 | 30.19424 | -15.65675 | 35062 ft | 398 kts | 15° |
| 2026-05-06 19:17 | 30.22078 | -15.64832 | 35445 ft | 393 kts | 15° |
| 2026-05-06 19:18 | 30.24702 | -15.64000 | 35825 ft | 389 kts | 15° |
| 2026-05-06 19:18 | 30.27298 | -15.63176 | 36199 ft | 384 kts | 15° |
| 2026-05-06 19:18 | 30.29857 | -15.62363 | 36568 ft | 379 kts | 15° |
| 2026-05-06 19:18 | 30.32379 | -15.61561 | 36930 ft | 373 kts | 15° |
| 2026-05-06 19:19 | 30.34864 | -15.60771 | 37284 ft | 367 kts | 15° |
| 2026-05-06 19:19 | 30.37303 | -15.59994 | 37629 ft | 360 kts | 15° |
| 2026-05-06 19:19 | 30.39691 | -15.59234 | 37956 ft | 353 kts | 15° |
| 2026-05-06 19:20 | 30.44461 | -15.57715 | 37981 ft | 358 kts | 15° |
| 2026-05-06 19:20 | 30.49294 | -15.56173 | 38000 ft | 362 kts | 15° |
| 2026-05-06 19:21 | 30.54198 | -15.54608 | 38010 ft | 368 kts | 15° |
| 2026-05-06 19:21 | 30.59172 | -15.53018 | 38008 ft | 375 kts | 15° |
| 2026-05-06 19:22 | 30.64251 | -15.51393 | 38019 ft | 382 kts | 15° |
| 2026-05-06 19:22 | 30.69427 | -15.49735 | 38019 ft | 389 kts | 15° |
| 2026-05-06 19:23 | 30.74706 | -15.48042 | 38016 ft | 397 kts | 15° |
| 2026-05-06 19:23 | 30.80087 | -15.46315 | 38016 ft | 405 kts | 15° |
| 2026-05-06 19:24 | 30.85577 | -15.44550 | 38016 ft | 413 kts | 15° |
| 2026-05-06 19:24 | 30.91168 | -15.42751 | 38015 ft | 421 kts | 15° |
| 2026-05-06 19:25 | 30.96863 | -15.40916 | 38014 ft | 428 kts | 15° |
| 2026-05-06 19:25 | 31.02661 | -15.39046 | 38014 ft | 436 kts | 15° |
| 2026-05-06 19:26 | 31.08563 | -15.37139 | 38013 ft | 444 kts | 15° |
| 2026-05-06 19:26 | 31.14563 | -15.35199 | 38012 ft | 451 kts | 15° |
| 2026-05-06 19:27 | 31.20660 | -15.33225 | 38016 ft | 458 kts | 15° |
| 2026-05-06 19:27 | 31.26804 | -15.31232 | 38017 ft | 465 kts | 15° |
| 2026-05-06 19:27 | 31.29878 | -15.30044 | 38032 ft | 467 kts | 26° |
| 2026-05-06 19:28 | 31.32700 | -15.28154 | 38037 ft | 469 kts | 33° |
| 2026-05-06 19:28 | 31.38176 | -15.23901 | 38020 ft | 475 kts | 33° |
| 2026-05-06 19:29 | 31.43723 | -15.19599 | 38014 ft | 481 kts | 33° |
| 2026-05-06 19:29 | 31.49330 | -15.15246 | 38008 ft | 487 kts | 33° |
| 2026-05-06 19:30 | 31.54996 | -15.10836 | 38008 ft | 491 kts | 33° |
| 2026-05-06 19:30 | 31.60717 | -15.06381 | 38012 ft | 496 kts | 33° |
| 2026-05-06 19:31 | 31.66486 | -15.01879 | 38015 ft | 500 kts | 33° |
| 2026-05-06 19:31 | 31.75228 | -14.95045 | 38008 ft | 506 kts | 33° |
| 2026-05-06 19:32 | 31.81115 | -14.90434 | 38007 ft | 509 kts | 33° |
| 2026-05-06 19:32 | 31.86956 | -14.85852 | 38013 ft | 511 kts | 33° |
| 2026-05-06 19:33 | 31.92789 | -14.81269 | 38017 ft | 514 kts | 33° |
| 2026-05-06 19:33 | 31.98749 | -14.76579 | 38012 ft | 516 kts | 33° |
| 2026-05-06 19:34 | 32.04734 | -14.71862 | 38007 ft | 519 kts | 34° |
| 2026-05-06 19:34 | 32.10737 | -14.67123 | 38008 ft | 520 kts | 34° |
| 2026-05-06 19:35 | 32.16763 | -14.62358 | 38010 ft | 522 kts | 34° |
| 2026-05-06 19:35 | 32.22809 | -14.57570 | 38011 ft | 524 kts | 34° |
| 2026-05-06 19:36 | 32.28870 | -14.52762 | 38009 ft | 526 kts | 34° |
| 2026-05-06 19:36 | 32.34949 | -14.47932 | 38012 ft | 527 kts | 34° |
| 2026-05-06 19:37 | 32.41032 | -14.43090 | 38007 ft | 528 kts | 34° |
| 2026-05-06 19:37 | 32.46069 | -14.39075 | 38008 ft | 529 kts | 34° |
| 2026-05-06 19:38 | 32.53235 | -14.33353 | 38012 ft | 531 kts | 34° |
| 2026-05-06 19:38 | 32.59367 | -14.28449 | 38007 ft | 532 kts | 34° |
| 2026-05-06 19:39 | 32.65506 | -14.23530 | 38010 ft | 534 kts | 34° |
| 2026-05-06 19:39 | 32.71660 | -14.18591 | 38011 ft | 535 kts | 34° |
| 2026-05-06 19:40 | 32.77812 | -14.13645 | 38012 ft | 536 kts | 34° |
| 2026-05-06 19:40 | 32.83970 | -14.08686 | 38010 ft | 537 kts | 34° |
| 2026-05-06 19:41 | 32.90193 | -14.03666 | 38008 ft | 538 kts | 34° |
| 2026-05-06 19:41 | 32.96373 | -13.98673 | 38008 ft | 539 kts | 34° |
| 2026-05-06 19:42 | 33.02556 | -13.93667 | 38008 ft | 540 kts | 34° |
| 2026-05-06 19:42 | 33.08762 | -13.88635 | 38008 ft | 540 kts | 34° |
| 2026-05-06 19:43 | 33.14991 | -13.83576 | 38012 ft | 541 kts | 34° |
| 2026-05-06 19:43 | 33.21198 | -13.78492 | 38011 ft | 542 kts | 34° |
| 2026-05-06 19:44 | 33.27411 | -13.73391 | 38010 ft | 542 kts | 34° |
| 2026-05-06 19:44 | 33.33621 | -13.68289 | 38012 ft | 542 kts | 34° |
| 2026-05-06 19:45 | 33.39835 | -13.63169 | 38010 ft | 542 kts | 34° |
| 2026-05-06 19:45 | 33.46052 | -13.58042 | 38012 ft | 543 kts | 34° |
| 2026-05-06 19:46 | 33.52271 | -13.52901 | 38010 ft | 543 kts | 34° |
| 2026-05-06 19:46 | 33.58494 | -13.47751 | 38012 ft | 543 kts | 34° |
| 2026-05-06 19:47 | 33.64710 | -13.42595 | 38010 ft | 544 kts | 34° |
| 2026-05-06 19:47 | 33.70936 | -13.37422 | 38012 ft | 544 kts | 34° |
| 2026-05-06 19:48 | 33.77160 | -13.32242 | 38010 ft | 544 kts | 34° |
| 2026-05-06 19:48 | 33.83386 | -13.27050 | 38012 ft | 545 kts | 34° |
| 2026-05-06 19:49 | 33.89608 | -13.21853 | 38009 ft | 545 kts | 34° |
| 2026-05-06 19:49 | 33.95837 | -13.16640 | 38011 ft | 545 kts | 34° |
| 2026-05-06 19:50 | 34.02059 | -13.11423 | 38012 ft | 545 kts | 35° |
| 2026-05-06 19:50 | 34.08226 | -13.06244 | 38009 ft | 543 kts | 35° |
| 2026-05-06 19:51 | 34.14423 | -13.01030 | 38008 ft | 543 kts | 35° |
| 2026-05-06 19:51 | 34.20618 | -12.95808 | 38008 ft | 543 kts | 35° |
| 2026-05-06 19:52 | 34.26816 | -12.90573 | 38008 ft | 543 kts | 35° |
| 2026-05-06 19:52 | 34.33030 | -12.85380 | 38009 ft | 543 kts | 34° |
| 2026-05-06 19:53 | 34.39247 | -12.80165 | 38009 ft | 543 kts | 35° |
| 2026-05-06 19:53 | 34.45460 | -12.74945 | 38010 ft | 543 kts | 34° |
| 2026-05-06 19:54 | 34.51667 | -12.69723 | 38011 ft | 544 kts | 34° |
| 2026-05-06 19:54 | 34.57874 | -12.64487 | 38011 ft | 543 kts | 34° |
| 2026-05-06 19:55 | 34.64080 | -12.59246 | 38011 ft | 543 kts | 35° |
| 2026-05-06 19:55 | 34.70282 | -12.53996 | 38012 ft | 543 kts | 35° |
| 2026-05-06 19:56 | 34.76483 | -12.48738 | 38009 ft | 543 kts | 35° |
| 2026-05-06 19:56 | 34.82640 | -12.43508 | 38010 ft | 543 kts | 35° |
| 2026-05-06 19:57 | 34.88837 | -12.38234 | 38010 ft | 543 kts | 35° |
| 2026-05-06 19:57 | 34.95029 | -12.32955 | 38011 ft | 543 kts | 35° |
| 2026-05-06 19:58 | 35.01223 | -12.27663 | 38011 ft | 544 kts | 35° |
| 2026-05-06 19:58 | 35.07413 | -12.22364 | 38012 ft | 543 kts | 35° |
| 2026-05-06 19:59 | 35.13598 | -12.17061 | 38012 ft | 543 kts | 35° |
| 2026-05-06 19:59 | 35.19779 | -12.11750 | 38012 ft | 543 kts | 35° |
| 2026-05-06 20:00 | 35.25959 | -12.06432 | 38009 ft | 544 kts | 35° |
| 2026-05-06 20:00 | 35.32141 | -12.01100 | 38010 ft | 544 kts | 35° |
| 2026-05-06 20:01 | 35.38323 | -11.95758 | 38011 ft | 543 kts | 35° |
| 2026-05-06 20:01 | 35.44494 | -11.90416 | 38011 ft | 543 kts | 35° |
| 2026-05-06 20:02 | 35.49625 | -11.85967 | 38011 ft | 543 kts | 35° |
| 2026-05-06 20:02 | 35.55791 | -11.80610 | 38012 ft | 543 kts | 35° |
| 2026-05-06 20:03 | 35.61961 | -11.75240 | 38009 ft | 543 kts | 35° |
| 2026-05-06 20:03 | 35.68129 | -11.69860 | 38010 ft | 543 kts | 35° |
| 2026-05-06 20:04 | 35.74294 | -11.64473 | 38011 ft | 544 kts | 35° |
| 2026-05-06 20:04 | 35.80462 | -11.59073 | 38012 ft | 544 kts | 35° |
| 2026-05-06 20:05 | 35.86623 | -11.53669 | 38009 ft | 544 kts | 35° |
| 2026-05-06 20:05 | 35.92782 | -11.48256 | 38009 ft | 543 kts | 35° |
| 2026-05-06 20:06 | 35.99366 | -11.43794 | 38027 ft | 542 kts | 18° |
| 2026-05-06 20:06 | 36.06551 | -11.40944 | 37999 ft | 542 kts | 17° |
| 2026-05-06 20:07 | 36.13750 | -11.38138 | 37993 ft | 543 kts | 18° |
| 2026-05-06 20:07 | 36.20889 | -11.35308 | 37994 ft | 543 kts | 17° |
| 2026-05-06 20:08 | 36.28045 | -11.32485 | 37995 ft | 544 kts | 18° |
| 2026-05-06 20:08 | 36.35151 | -11.29674 | 37995 ft | 544 kts | 17° |
| 2026-05-06 20:09 | 36.42385 | -11.26808 | 37997 ft | 544 kts | 18° |
| 2026-05-06 20:09 | 36.49598 | -11.23944 | 37998 ft | 545 kts | 18° |
| 2026-05-06 20:10 | 36.56832 | -11.21068 | 38000 ft | 545 kts | 18° |
| 2026-05-06 20:10 | 36.64051 | -11.18190 | 38000 ft | 544 kts | 18° |
| 2026-05-06 20:11 | 36.71266 | -11.15309 | 38001 ft | 545 kts | 18° |
| 2026-05-06 20:11 | 36.78487 | -11.12420 | 38002 ft | 545 kts | 18° |
| 2026-05-06 20:12 | 36.85706 | -11.09526 | 38003 ft | 545 kts | 18° |
| 2026-05-06 20:12 | 36.92930 | -11.06624 | 38004 ft | 545 kts | 18° |
| 2026-05-06 20:13 | 37.00157 | -11.03715 | 38006 ft | 546 kts | 18° |
| 2026-05-06 20:13 | 37.07384 | -11.00801 | 38008 ft | 546 kts | 18° |
| 2026-05-06 20:14 | 37.14620 | -10.97876 | 38009 ft | 546 kts | 18° |
| 2026-05-06 20:14 | 37.21849 | -10.94949 | 38010 ft | 546 kts | 18° |
| 2026-05-06 20:15 | 37.29079 | -10.92015 | 38010 ft | 546 kts | 18° |
| 2026-05-06 20:15 | 37.36303 | -10.89078 | 38010 ft | 546 kts | 18° |
| 2026-05-06 20:16 | 37.43526 | -10.86136 | 38010 ft | 546 kts | 18° |
| 2026-05-06 20:16 | 37.50747 | -10.83188 | 38011 ft | 546 kts | 18° |
| 2026-05-06 20:17 | 37.57930 | -10.80250 | 38012 ft | 546 kts | 18° |
| 2026-05-06 20:17 | 37.65155 | -10.77289 | 38009 ft | 546 kts | 18° |
| 2026-05-06 20:18 | 37.72373 | -10.74324 | 38009 ft | 546 kts | 18° |
| 2026-05-06 20:18 | 37.79596 | -10.71351 | 38010 ft | 546 kts | 18° |
| 2026-05-06 20:19 | 37.86819 | -10.68372 | 38010 ft | 546 kts | 18° |
| 2026-05-06 20:19 | 37.94043 | -10.65387 | 38011 ft | 546 kts | 18° |
| 2026-05-06 20:20 | 38.01270 | -10.62394 | 38008 ft | 546 kts | 18° |
| 2026-05-06 20:20 | 38.08515 | -10.59387 | 38010 ft | 546 kts | 18° |
| 2026-05-06 20:21 | 38.15740 | -10.56383 | 38010 ft | 546 kts | 18° |
| 2026-05-06 20:21 | 38.22960 | -10.53374 | 38010 ft | 546 kts | 18° |
| 2026-05-06 20:22 | 38.30175 | -10.50361 | 38010 ft | 546 kts | 18° |
| 2026-05-06 20:22 | 38.37381 | -10.47345 | 38009 ft | 545 kts | 18° |
| 2026-05-06 20:23 | 38.44590 | -10.44323 | 38009 ft | 545 kts | 18° |
| 2026-05-06 20:23 | 38.51804 | -10.41291 | 38010 ft | 546 kts | 18° |
| 2026-05-06 20:24 | 38.59011 | -10.38256 | 38011 ft | 546 kts | 18° |
| 2026-05-06 20:24 | 38.66223 | -10.35212 | 38012 ft | 546 kts | 18° |
| 2026-05-06 20:25 | 38.73428 | -10.32165 | 38010 ft | 546 kts | 18° |
| 2026-05-06 20:25 | 38.80640 | -10.29108 | 38009 ft | 546 kts | 18° |
| 2026-05-06 20:26 | 38.87846 | -10.26048 | 38009 ft | 545 kts | 18° |
| 2026-05-06 20:26 | 38.95049 | -10.22982 | 38010 ft | 545 kts | 18° |
| 2026-05-06 20:27 | 39.02255 | -10.19909 | 38011 ft | 546 kts | 18° |
| 2026-05-06 20:27 | 39.09419 | -10.16846 | 38012 ft | 546 kts | 18° |
| 2026-05-06 20:28 | 39.16639 | -10.13753 | 38009 ft | 546 kts | 18° |
| 2026-05-06 20:28 | 39.23842 | -10.10661 | 38010 ft | 546 kts | 18° |
| 2026-05-06 20:29 | 39.31050 | -10.07560 | 38010 ft | 546 kts | 18° |
| 2026-05-06 20:29 | 39.38231 | -10.04464 | 38011 ft | 546 kts | 18° |
| 2026-05-06 20:30 | 39.49057 | -9.99783 | 38012 ft | 546 kts | 18° |
| 2026-05-06 20:31 | 39.56262 | -9.96659 | 38012 ft | 546 kts | 18° |
| 2026-05-06 20:31 | 39.63434 | -9.93543 | 38008 ft | 546 kts | 18° |
| 2026-05-06 20:32 | 39.70620 | -9.90414 | 38010 ft | 546 kts | 18° |
| 2026-05-06 20:32 | 39.77851 | -9.87258 | 38011 ft | 546 kts | 18° |
| 2026-05-06 20:33 | 39.85054 | -9.84108 | 38011 ft | 546 kts | 18° |
| 2026-05-06 20:33 | 39.92213 | -9.80970 | 38011 ft | 546 kts | 18° |
| 2026-05-06 20:34 | 39.99409 | -9.77809 | 38011 ft | 546 kts | 18° |
| 2026-05-06 20:34 | 40.06622 | -9.74633 | 38012 ft | 546 kts | 18° |
| 2026-05-06 20:35 | 40.13795 | -9.71467 | 38009 ft | 546 kts | 18° |
| 2026-05-06 20:35 | 40.20998 | -9.68282 | 38011 ft | 546 kts | 18° |
| 2026-05-06 20:36 | 40.28202 | -9.65089 | 38009 ft | 547 kts | 18° |
| 2026-05-06 20:36 | 40.35408 | -9.61888 | 38010 ft | 547 kts | 18° |
| 2026-05-06 20:37 | 40.42612 | -9.58680 | 38011 ft | 546 kts | 19° |
| 2026-05-06 20:37 | 40.49788 | -9.55478 | 38010 ft | 546 kts | 19° |
| 2026-05-06 20:38 | 40.56984 | -9.52259 | 38010 ft | 546 kts | 19° |
| 2026-05-06 20:38 | 40.64176 | -9.49035 | 38010 ft | 546 kts | 19° |
| 2026-05-06 20:39 | 40.71364 | -9.45805 | 38010 ft | 546 kts | 19° |
| 2026-05-06 20:39 | 40.78550 | -9.42569 | 38011 ft | 546 kts | 19° |
| 2026-05-06 20:40 | 40.85739 | -9.39324 | 38012 ft | 546 kts | 19° |
| 2026-05-06 20:40 | 40.92935 | -9.36068 | 38009 ft | 546 kts | 19° |
| 2026-05-06 20:41 | 41.00129 | -9.32806 | 38011 ft | 547 kts | 19° |
| 2026-05-06 20:41 | 41.07321 | -9.29537 | 38011 ft | 546 kts | 19° |
| 2026-05-06 20:42 | 41.14507 | -9.26263 | 38012 ft | 546 kts | 19° |
| 2026-05-06 20:42 | 41.21696 | -9.22980 | 38008 ft | 546 kts | 19° |
| 2026-05-06 20:43 | 41.28889 | -9.19688 | 38009 ft | 545 kts | 19° |
| 2026-05-06 20:43 | 41.32411 | -9.18077 | 37996 ft | 533 kts | 19° |
| 2026-05-06 20:43 | 41.35922 | -9.16466 | 37996 ft | 532 kts | 19° |
| 2026-05-06 20:44 | 41.42932 | -9.13237 | 37996 ft | 534 kts | 19° |
| 2026-05-06 20:44 | 41.49961 | -9.10001 | 37992 ft | 535 kts | 19° |
| 2026-05-06 20:45 | 41.57002 | -9.06746 | 37993 ft | 536 kts | 19° |
| 2026-05-06 20:45 | 41.64012 | -9.03502 | 37995 ft | 537 kts | 19° |
| 2026-05-06 20:46 | 41.71083 | -9.00220 | 37999 ft | 538 kts | 19° |
| 2026-05-06 20:46 | 41.78159 | -8.96929 | 38003 ft | 539 kts | 19° |
| 2026-05-06 20:47 | 41.85247 | -8.93624 | 38006 ft | 540 kts | 19° |
| 2026-05-06 20:47 | 41.92124 | -8.89583 | 38008 ft | 540 kts | 25° |
| 2026-05-06 20:48 | 41.98896 | -8.85197 | 38010 ft | 541 kts | 25° |
| 2026-05-06 20:48 | 42.05693 | -8.80829 | 38009 ft | 541 kts | 25° |
| 2026-05-06 20:49 | 42.12483 | -8.76428 | 38009 ft | 542 kts | 25° |
| 2026-05-06 20:49 | 42.19279 | -8.72029 | 38012 ft | 542 kts | 25° |
| 2026-05-06 20:50 | 42.26086 | -8.67602 | 38011 ft | 543 kts | 25° |
| 2026-05-06 20:50 | 42.32886 | -8.63175 | 38009 ft | 543 kts | 26° |
| 2026-05-06 20:51 | 42.39695 | -8.58729 | 38012 ft | 543 kts | 26° |
| 2026-05-06 20:51 | 42.45354 | -8.55025 | 38009 ft | 544 kts | 26° |
| 2026-05-06 20:52 | 42.52172 | -8.50555 | 38012 ft | 544 kts | 26° |
| 2026-05-06 20:52 | 42.58986 | -8.46075 | 38009 ft | 544 kts | 26° |
| 2026-05-06 20:53 | 42.65791 | -8.41590 | 38010 ft | 544 kts | 26° |
| 2026-05-06 20:53 | 42.72600 | -8.37092 | 38010 ft | 544 kts | 26° |
| 2026-05-06 20:54 | 42.79407 | -8.32584 | 38011 ft | 544 kts | 26° |
| 2026-05-06 20:54 | 42.86208 | -8.28069 | 38011 ft | 544 kts | 26° |
| 2026-05-06 20:55 | 42.93016 | -8.23538 | 38009 ft | 545 kts | 26° |
| 2026-05-06 20:55 | 42.99825 | -8.18995 | 38011 ft | 545 kts | 26° |
| 2026-05-06 20:56 | 43.06634 | -8.14441 | 38012 ft | 545 kts | 26° |
| 2026-05-06 20:56 | 43.13442 | -8.09877 | 38009 ft | 545 kts | 26° |
| 2026-05-06 20:57 | 43.20249 | -8.05301 | 38010 ft | 545 kts | 26° |
| 2026-05-06 20:57 | 43.27055 | -8.00715 | 38011 ft | 545 kts | 26° |
| 2026-05-06 20:58 | 43.33858 | -7.96119 | 38012 ft | 545 kts | 26° |
| 2026-05-06 20:58 | 43.40620 | -7.91539 | 38009 ft | 545 kts | 26° |
| 2026-05-06 20:59 | 43.47424 | -7.86920 | 38009 ft | 545 kts | 26° |
| 2026-05-06 20:59 | 43.54232 | -7.82286 | 38011 ft | 546 kts | 26° |
| 2026-05-06 21:00 | 43.61037 | -7.77642 | 38012 ft | 546 kts | 26° |
| 2026-05-06 21:00 | 43.67843 | -7.72986 | 38007 ft | 545 kts | 26° |
| 2026-05-06 21:01 | 43.74637 | -7.68326 | 38008 ft | 545 kts | 26° |
| 2026-05-06 21:01 | 43.81433 | -7.63653 | 38008 ft | 545 kts | 26° |
| 2026-05-06 21:02 | 43.88226 | -7.58970 | 38009 ft | 545 kts | 26° |
| 2026-05-06 21:02 | 43.95021 | -7.54274 | 38009 ft | 545 kts | 26° |
| 2026-05-06 21:03 | 44.01804 | -7.49574 | 38009 ft | 545 kts | 26° |
| 2026-05-06 21:03 | 44.08583 | -7.44864 | 38008 ft | 545 kts | 26° |
| 2026-05-06 21:04 | 44.15359 | -7.40144 | 38008 ft | 545 kts | 26° |
| 2026-05-06 21:04 | 44.22140 | -7.35410 | 38009 ft | 545 kts | 26° |
| 2026-05-06 21:05 | 44.28907 | -7.30672 | 38009 ft | 544 kts | 26° |
| 2026-05-06 21:05 | 44.35673 | -7.25922 | 38008 ft | 544 kts | 26° |
| 2026-05-06 21:06 | 44.42441 | -7.21159 | 38009 ft | 544 kts | 26° |
| 2026-05-06 21:06 | 44.49199 | -7.16391 | 38009 ft | 544 kts | 26° |
| 2026-05-06 21:07 | 44.55960 | -7.11608 | 38009 ft | 544 kts | 27° |
| 2026-05-06 21:07 | 44.62720 | -7.06813 | 38010 ft | 544 kts | 27° |
| 2026-05-06 21:08 | 44.69477 | -7.02008 | 38011 ft | 545 kts | 27° |
| 2026-05-06 21:08 | 44.76236 | -6.97188 | 38012 ft | 544 kts | 27° |
| 2026-05-06 21:09 | 44.82939 | -6.92394 | 38012 ft | 544 kts | 27° |
| 2026-05-06 21:09 | 44.89496 | -6.87062 | 38006 ft | 544 kts | 30° |
| 2026-05-06 21:10 | 44.96040 | -6.81708 | 38007 ft | 544 kts | 30° |
| 2026-05-06 21:10 | 45.02570 | -6.76304 | 38008 ft | 544 kts | 30° |
| 2026-05-06 21:11 | 45.09105 | -6.70912 | 38009 ft | 544 kts | 30° |
| 2026-05-06 21:11 | 45.15629 | -6.65496 | 38010 ft | 544 kts | 30° |
| 2026-05-06 21:12 | 45.22152 | -6.60078 | 38010 ft | 543 kts | 30° |
| 2026-05-06 21:12 | 45.28663 | -6.54648 | 38009 ft | 543 kts | 30° |
| 2026-05-06 21:13 | 45.35168 | -6.49212 | 38008 ft | 542 kts | 30° |
| 2026-05-06 21:13 | 45.41675 | -6.43758 | 38008 ft | 543 kts | 30° |
| 2026-05-06 21:14 | 45.48173 | -6.38298 | 38009 ft | 543 kts | 30° |
| 2026-05-06 21:14 | 45.54667 | -6.32826 | 38008 ft | 542 kts | 30° |
| 2026-05-06 21:15 | 45.61157 | -6.27343 | 38008 ft | 541 kts | 31° |
| 2026-05-06 21:15 | 45.67632 | -6.21857 | 38007 ft | 541 kts | 31° |
| 2026-05-06 21:16 | 45.74105 | -6.16359 | 38006 ft | 541 kts | 31° |
| 2026-05-06 21:16 | 45.80536 | -6.10880 | 38007 ft | 541 kts | 31° |
| 2026-05-06 21:17 | 45.87005 | -6.05355 | 38007 ft | 541 kts | 31° |
| 2026-05-06 21:17 | 45.93460 | -5.99826 | 38006 ft | 540 kts | 31° |
| 2026-05-06 21:18 | 45.99918 | -5.94280 | 38006 ft | 541 kts | 31° |
| 2026-05-06 21:18 | 46.06373 | -5.88721 | 38007 ft | 541 kts | 31° |
| 2026-05-06 21:19 | 46.12830 | -5.83145 | 38007 ft | 541 kts | 31° |
| 2026-05-06 21:19 | 46.19284 | -5.77556 | 38008 ft | 541 kts | 31° |
| 2026-05-06 21:20 | 46.25738 | -5.71952 | 38009 ft | 541 kts | 31° |
| 2026-05-06 21:20 | 46.32191 | -5.66332 | 38010 ft | 542 kts | 31° |
| 2026-05-06 21:21 | 46.38641 | -5.60700 | 38011 ft | 541 kts | 31° |
| 2026-05-06 21:21 | 46.45086 | -5.55057 | 38011 ft | 541 kts | 31° |
| 2026-05-06 21:22 | 46.51531 | -5.49397 | 38012 ft | 542 kts | 31° |
| 2026-05-06 21:22 | 46.57968 | -5.43729 | 38009 ft | 541 kts | 31° |
| 2026-05-06 21:23 | 46.64406 | -5.38045 | 38009 ft | 541 kts | 31° |
| 2026-05-06 21:23 | 46.70800 | -5.32389 | 38010 ft | 541 kts | 31° |
| 2026-05-06 21:24 | 46.77230 | -5.26681 | 38011 ft | 541 kts | 31° |
| 2026-05-06 21:24 | 46.83660 | -5.20960 | 38011 ft | 541 kts | 31° |
| 2026-05-06 21:25 | 46.90086 | -5.15224 | 38011 ft | 541 kts | 31° |
| 2026-05-06 21:25 | 46.96509 | -5.09476 | 38011 ft | 541 kts | 31° |
| 2026-05-06 21:26 | 47.02920 | -5.03722 | 38011 ft | 541 kts | 31° |
| 2026-05-06 21:26 | 47.09334 | -4.97949 | 38011 ft | 541 kts | 31° |
| 2026-05-06 21:27 | 47.15744 | -4.92162 | 38008 ft | 541 kts | 31° |
| 2026-05-06 21:27 | 47.22157 | -4.86356 | 38010 ft | 542 kts | 31° |
| 2026-05-06 21:28 | 47.28572 | -4.80532 | 38011 ft | 542 kts | 32° |
| 2026-05-06 21:28 | 47.34989 | -4.74690 | 38009 ft | 542 kts | 32° |
| 2026-05-06 21:29 | 47.41403 | -4.68833 | 38010 ft | 542 kts | 32° |
| 2026-05-06 21:29 | 47.47810 | -4.62964 | 38011 ft | 542 kts | 32° |
| 2026-05-06 21:30 | 47.54209 | -4.57088 | 38011 ft | 542 kts | 32° |
| 2026-05-06 21:30 | 47.60614 | -4.51187 | 38012 ft | 542 kts | 32° |
| 2026-05-06 21:31 | 47.67007 | -4.45282 | 38012 ft | 541 kts | 32° |
| 2026-05-06 21:31 | 47.73398 | -4.39359 | 38009 ft | 542 kts | 32° |
| 2026-05-06 21:32 | 47.79753 | -4.33459 | 38010 ft | 542 kts | 31° |
| 2026-05-06 21:32 | 47.86707 | -4.29290 | 38006 ft | 541 kts | 16° |
| 2026-05-06 21:32 | 47.90325 | -4.27732 | 38009 ft | 541 kts | 15° |
| 2026-05-06 21:33 | 47.97574 | -4.24665 | 38008 ft | 542 kts | 16° |
| 2026-05-06 21:33 | 48.04824 | -4.21533 | 38009 ft | 542 kts | 16° |
| 2026-05-06 21:34 | 48.12110 | -4.18743 | 38032 ft | 541 kts | 8° |
| 2026-05-06 21:34 | 48.19614 | -4.17657 | 38011 ft | 542 kts | 5° |
| 2026-05-06 21:35 | 48.27097 | -4.16226 | 38010 ft | 542 kts | 8° |
| 2026-05-06 21:35 | 48.34592 | -4.14884 | 38010 ft | 543 kts | 6° |
| 2026-05-06 21:36 | 48.42099 | -4.13525 | 38011 ft | 543 kts | 7° |
| 2026-05-06 21:36 | 48.49606 | -4.12139 | 38010 ft | 544 kts | 6° |
| 2026-05-06 21:37 | 48.57119 | -4.10780 | 38008 ft | 544 kts | 7° |
| 2026-05-06 21:37 | 48.64646 | -4.09384 | 38012 ft | 545 kts | 6° |
| 2026-05-06 21:38 | 48.72176 | -4.08007 | 38011 ft | 545 kts | 7° |
| 2026-05-06 21:38 | 48.79718 | -4.06606 | 38010 ft | 546 kts | 7° |
| 2026-05-06 21:39 | 48.87261 | -4.05213 | 38012 ft | 546 kts | 7° |
| 2026-05-06 21:39 | 48.94813 | -4.03806 | 38010 ft | 547 kts | 7° |
| 2026-05-06 21:40 | 49.02361 | -4.02401 | 38011 ft | 547 kts | 7° |
| 2026-05-06 21:40 | 49.09917 | -4.00987 | 38009 ft | 547 kts | 7° |
| 2026-05-06 21:41 | 49.17468 | -3.99571 | 38009 ft | 546 kts | 7° |
| 2026-05-06 21:41 | 49.23737 | -3.98391 | 38010 ft | 546 kts | 7° |
| 2026-05-06 21:42 | 49.31278 | -3.96968 | 38010 ft | 546 kts | 7° |
| 2026-05-06 21:42 | 49.38822 | -3.95541 | 38010 ft | 546 kts | 7° |
| 2026-05-06 21:43 | 49.46361 | -3.94110 | 38010 ft | 546 kts | 7° |
| 2026-05-06 21:43 | 49.53897 | -3.92675 | 38010 ft | 546 kts | 7° |
| 2026-05-06 21:44 | 49.61430 | -3.91236 | 38010 ft | 545 kts | 7° |
| 2026-05-06 21:44 | 49.68970 | -3.89791 | 38010 ft | 546 kts | 7° |
| 2026-05-06 21:45 | 49.76509 | -3.88342 | 38011 ft | 546 kts | 7° |
| 2026-05-06 21:45 | 49.84052 | -3.86888 | 38009 ft | 547 kts | 7° |
| 2026-05-06 21:46 | 49.91602 | -3.85428 | 38011 ft | 547 kts | 7° |
| 2026-05-06 21:46 | 49.99161 | -3.83961 | 38009 ft | 548 kts | 7° |
| 2026-05-06 21:47 | 50.06722 | -3.82489 | 38011 ft | 548 kts | 7° |
| 2026-05-06 21:47 | 50.14286 | -3.81012 | 38010 ft | 548 kts | 7° |
| 2026-05-06 21:48 | 50.21856 | -3.79530 | 38011 ft | 548 kts | 7° |
| 2026-05-06 21:48 | 50.29425 | -3.78042 | 38012 ft | 548 kts | 7° |
| 2026-05-06 21:49 | 50.37002 | -3.76549 | 38009 ft | 548 kts | 7° |
| 2026-05-06 21:49 | 50.44570 | -3.75052 | 38010 ft | 549 kts | 7° |
| 2026-05-06 21:50 | 50.52149 | -3.73548 | 38011 ft | 549 kts | 7° |
| 2026-05-06 21:50 | 50.59723 | -3.72040 | 38008 ft | 549 kts | 7° |
| 2026-05-06 21:51 | 50.67256 | -3.70536 | 38010 ft | 549 kts | 7° |
| 2026-05-06 21:51 | 50.74832 | -3.69018 | 38011 ft | 549 kts | 7° |
| 2026-05-06 21:52 | 50.82411 | -3.67495 | 38011 ft | 549 kts | 7° |
| 2026-05-06 21:52 | 50.89992 | -3.65966 | 38011 ft | 549 kts | 7° |
| 2026-05-06 21:53 | 50.97578 | -3.64431 | 38010 ft | 549 kts | 7° |
| 2026-05-06 21:53 | 51.05177 | -3.62888 | 37757 ft | 554 kts | 7° |
| 2026-05-06 21:54 | 51.09007 | -3.62109 | 37565 ft | 557 kts | 7° |
| 2026-05-06 21:54 | 51.12852 | -3.61325 | 37372 ft | 556 kts | 7° |
| 2026-05-06 21:54 | 51.16686 | -3.60542 | 37178 ft | 555 kts | 7° |
| 2026-05-06 21:54 | 51.20508 | -3.59760 | 36982 ft | 552 kts | 7° |
| 2026-05-06 21:55 | 51.24306 | -3.58982 | 36785 ft | 550 kts | 7° |
| 2026-05-06 21:55 | 51.28089 | -3.58206 | 36588 ft | 547 kts | 7° |
| 2026-05-06 21:55 | 51.31859 | -3.57431 | 36390 ft | 545 kts | 7° |
| 2026-05-06 21:55 | 51.35622 | -3.56656 | 36192 ft | 543 kts | 7° |
| 2026-05-06 21:56 | 51.39367 | -3.55884 | 35995 ft | 541 kts | 7° |
| 2026-05-06 21:56 | 51.43091 | -3.55115 | 35797 ft | 539 kts | 7° |
| 2026-05-06 21:56 | 51.46808 | -3.54346 | 35598 ft | 537 kts | 7° |
| 2026-05-06 21:56 | 51.50507 | -3.53579 | 35398 ft | 535 kts | 7° |
| 2026-05-06 21:57 | 51.54195 | -3.52813 | 35198 ft | 533 kts | 7° |
| 2026-05-06 21:57 | 51.57863 | -3.52051 | 34999 ft | 531 kts | 7° |
| 2026-05-06 21:57 | 51.61521 | -3.51289 | 34799 ft | 529 kts | 7° |
| 2026-05-06 21:57 | 51.65171 | -3.50528 | 34599 ft | 527 kts | 7° |
| 2026-05-06 21:58 | 51.68796 | -3.49770 | 34399 ft | 525 kts | 7° |
| 2026-05-06 21:58 | 51.72365 | -3.49024 | 34201 ft | 523 kts | 7° |
| 2026-05-06 21:58 | 51.76011 | -3.48259 | 33999 ft | 521 kts | 7° |
| 2026-05-06 21:58 | 51.79604 | -3.47505 | 33798 ft | 519 kts | 7° |
| 2026-05-06 21:59 | 51.83130 | -3.46763 | 33601 ft | 518 kts | 7° |
| 2026-05-06 21:59 | 51.86715 | -3.46008 | 33407 ft | 523 kts | 7° |
| 2026-05-06 21:59 | 51.90354 | -3.45240 | 33216 ft | 529 kts | 7° |
| 2026-05-06 21:59 | 51.94020 | -3.44466 | 33030 ft | 534 kts | 7° |
| 2026-05-06 22:00 | 51.97723 | -3.43682 | 32845 ft | 539 kts | 7° |
| 2026-05-06 22:00 | 52.01463 | -3.42889 | 32660 ft | 544 kts | 7° |
| 2026-05-06 22:00 | 52.05223 | -3.42090 | 32476 ft | 547 kts | 7° |
| 2026-05-06 22:00 | 52.09013 | -3.41284 | 32290 ft | 550 kts | 7° |
| 2026-05-06 22:01 | 52.12805 | -3.40477 | 32103 ft | 550 kts | 7° |
| 2026-05-06 22:01 | 52.16602 | -3.39666 | 31913 ft | 549 kts | 7° |
| 2026-05-06 22:01 | 52.20378 | -3.38858 | 31719 ft | 547 kts | 7° |
| 2026-05-06 22:01 | 52.24146 | -3.38051 | 31524 ft | 545 kts | 7° |
| 2026-05-06 22:02 | 52.27898 | -3.37246 | 31327 ft | 543 kts | 7° |
| 2026-05-06 22:02 | 52.31635 | -3.36443 | 31130 ft | 541 kts | 7° |
| 2026-05-06 22:02 | 52.35356 | -3.35642 | 30931 ft | 539 kts | 7° |
| 2026-05-06 22:02 | 52.39066 | -3.34841 | 30733 ft | 537 kts | 7° |
| 2026-05-06 22:03 | 52.42763 | -3.34042 | 30534 ft | 535 kts | 7° |
| 2026-05-06 22:03 | 52.46445 | -3.33246 | 30334 ft | 533 kts | 7° |
| 2026-05-06 22:03 | 52.50117 | -3.32450 | 30134 ft | 531 kts | 7° |
| 2026-05-06 22:03 | 52.53771 | -3.31656 | 29934 ft | 529 kts | 7° |
| 2026-05-06 22:04 | 52.57417 | -3.30864 | 29734 ft | 527 kts | 7° |
| 2026-05-06 22:04 | 52.61039 | -3.30075 | 29535 ft | 525 kts | 7° |
| 2026-05-06 22:04 | 52.64657 | -3.29285 | 29334 ft | 523 kts | 7° |
| 2026-05-06 22:04 | 52.68258 | -3.28497 | 29134 ft | 521 kts | 7° |
| 2026-05-06 22:05 | 52.71835 | -3.27603 | 28934 ft | 519 kts | 12° |
| 2026-05-06 22:05 | 52.75276 | -3.25820 | 28746 ft | 517 kts | 20° |
| 2026-05-06 22:05 | 52.78653 | -3.23779 | 28378 ft | 517 kts | 21° |
| 2026-05-06 22:05 | 52.81958 | -3.21502 | 28004 ft | 512 kts | 24° |
| 2026-05-06 22:06 | 52.85195 | -3.19113 | 27629 ft | 507 kts | 23° |
| 2026-05-06 22:06 | 52.88437 | -3.16861 | 27255 ft | 504 kts | 22° |
| 2026-05-06 22:06 | 52.91682 | -3.14716 | 26878 ft | 500 kts | 21° |
| 2026-05-06 22:06 | 52.94891 | -3.12529 | 26503 ft | 497 kts | 22° |
| 2026-05-06 22:07 | 52.98064 | -3.10288 | 26128 ft | 494 kts | 23° |
| 2026-05-06 22:07 | 53.01220 | -3.08078 | 25753 ft | 490 kts | 22° |
| 2026-05-06 22:07 | 53.04358 | -3.05924 | 25378 ft | 487 kts | 22° |
| 2026-05-06 22:07 | 53.07475 | -3.03776 | 25002 ft | 484 kts | 22° |
| 2026-05-06 22:08 | 53.10572 | -3.01611 | 24626 ft | 480 kts | 22° |
| 2026-05-06 22:08 | 53.13641 | -2.99462 | 24250 ft | 477 kts | 22° |
| 2026-05-06 22:08 | 53.16692 | -2.97335 | 23875 ft | 474 kts | 22° |
| 2026-05-06 22:08 | 53.19686 | -2.95248 | 23504 ft | 471 kts | 22° |
| 2026-05-06 22:09 | 53.22700 | -2.93138 | 23129 ft | 468 kts | 22° |
| 2026-05-06 22:09 | 53.25698 | -2.91032 | 22752 ft | 464 kts | 22° |
| 2026-05-06 22:09 | 53.28625 | -2.88794 | 22371 ft | 461 kts | 30° |
| 2026-05-06 22:09 | 53.31201 | -2.85665 | 22004 ft | 458 kts | 43° |
| 2026-05-06 22:10 | 53.33295 | -2.81676 | 21640 ft | 455 kts | 55° |
| 2026-05-06 22:10 | 53.34795 | -2.77051 | 21278 ft | 452 kts | 68° |
| 2026-05-06 22:10 | 53.35639 | -2.72005 | 20917 ft | 449 kts | 81° |
| 2026-05-06 22:10 | 53.35779 | -2.66812 | 20557 ft | 446 kts | 94° |
| 2026-05-06 22:11 | 53.35230 | -2.61722 | 20198 ft | 443 kts | 104° |
| 2026-05-06 22:11 | 53.34337 | -2.56822 | 19832 ft | 437 kts | 110° |
| 2026-05-06 22:11 | 53.33139 | -2.52257 | 19459 ft | 422 kts | 117° |
| 2026-05-06 22:11 | 53.31666 | -2.48115 | 19080 ft | 408 kts | 125° |
| 2026-05-06 22:12 | 53.29943 | -2.44437 | 18698 ft | 396 kts | 132° |
| 2026-05-06 22:12 | 53.28000 | -2.41258 | 18314 ft | 386 kts | 140° |
| 2026-05-06 22:12 | 53.25872 | -2.38614 | 17934 ft | 380 kts | 148° |
| 2026-05-06 22:12 | 53.23556 | -2.36491 | 17555 ft | 378 kts | 156° |
| 2026-05-06 22:13 | 53.21592 | -2.35195 | 17253 ft | 376 kts | 162° |
| 2026-05-06 22:13 | 53.19063 | -2.34112 | 16882 ft | 374 kts | 170° |
| 2026-05-06 22:13 | 53.16483 | -2.33631 | 16513 ft | 373 kts | 178° |
| 2026-05-06 22:13 | 53.13896 | -2.33753 | 16144 ft | 371 kts | 186° |
| 2026-05-06 22:14 | 53.11366 | -2.34474 | 15777 ft | 368 kts | 194° |
| 2026-05-06 22:14 | 53.09004 | -2.36017 | 15410 ft | 365 kts | 213° |
| 2026-05-06 22:14 | 53.07166 | -2.38851 | 15069 ft | 361 kts | 233° |
| 2026-05-06 22:14 | 53.05860 | -2.42401 | 14709 ft | 359 kts | 242° |
| 2026-05-06 22:15 | 53.04720 | -2.46078 | 14345 ft | 358 kts | 242° |
| 2026-05-06 22:15 | 53.03486 | -2.49661 | 13979 ft | 356 kts | 237° |
| 2026-05-06 22:15 | 53.02088 | -2.53038 | 13611 ft | 354 kts | 234° |
| 2026-05-06 22:15 | 53.00699 | -2.56384 | 13239 ft | 351 kts | 238° |
| 2026-05-06 22:16 | 52.99853 | -2.60156 | 12637 ft | 354 kts | 261° |
| 2026-05-06 22:16 | 52.99941 | -2.64231 | 11779 ft | 358 kts | 283° |
| 2026-05-06 22:16 | 53.00968 | -2.67989 | 10912 ft | 361 kts | 305° |
| 2026-05-06 22:16 | 53.02762 | -2.70876 | 10049 ft | 362 kts | 323° |
| 2026-05-06 22:17 | 53.04891 | -2.73113 | 9179 ft | 362 kts | 331° |
| 2026-05-06 22:17 | 53.07185 | -2.74842 | 8307 ft | 362 kts | 339° |
| 2026-05-06 22:17 | 53.09597 | -2.76024 | 7429 ft | 361 kts | 347° |
| 2026-05-06 22:17 | 53.12084 | -2.76520 | 6528 ft | 360 kts | 2° |
| 2026-05-06 22:18 | 53.14497 | -2.75570 | 5630 ft | 360 kts | 24° |
| 2026-05-06 22:18 | 53.16538 | -2.73214 | 4726 ft | 358 kts | 45° |
| 2026-05-06 22:18 | 53.17857 | -2.69909 | 3822 ft | 330 kts | 67° |
| 2026-05-06 22:18 | 53.18595 | -2.66511 | 3450 ft | 292 kts | 72° |
| 2026-05-06 22:19 | 53.19233 | -2.63563 | 3442 ft | 251 kts | 68° |
| 2026-05-06 22:19 | 53.19911 | -2.61134 | 3461 ft | 212 kts | 63° |
| 2026-05-06 22:19 | 53.20535 | -2.59104 | 3441 ft | 184 kts | 63° |
| 2026-05-06 22:19 | 53.21084 | -2.57245 | 3443 ft | 176 kts | 64° |
| 2026-05-06 22:20 | 53.21608 | -2.55425 | 3446 ft | 173 kts | 64° |
| 2026-05-06 22:20 | 53.22186 | -2.53662 | 3424 ft | 174 kts | 53° |
| 2026-05-06 22:20 | 53.22963 | -2.52161 | 3442 ft | 175 kts | 50° |
| 2026-05-06 22:20 | 53.23736 | -2.50488 | 3119 ft | 178 kts | 53° |
| 2026-05-06 22:21 | 53.24479 | -2.48891 | 2870 ft | 173 kts | 51° |
| 2026-05-06 22:21 | 53.25234 | -2.47338 | 2642 ft | 171 kts | 51° |
| 2026-05-06 22:21 | 53.25993 | -2.45782 | 2418 ft | 173 kts | 51° |
| 2026-05-06 22:21 | 53.26747 | -2.44238 | 2188 ft | 171 kts | 51° |
| 2026-05-06 22:22 | 53.27497 | -2.42698 | 1960 ft | 170 kts | 51° |
| 2026-05-06 22:22 | 53.28234 | -2.41188 | 1737 ft | 170 kts | 51° |
| 2026-05-06 22:22 | 53.28983 | -2.39669 | 1511 ft | 169 kts | 51° |
| 2026-05-06 22:22 | 53.29724 | -2.38153 | 1287 ft | 168 kts | 51° |
| 2026-05-06 22:23 | 53.30466 | -2.36652 | 1084 ft | 167 kts | 50° |
| 2026-05-06 22:23 | 53.31196 | -2.35133 | 846 ft | 166 kts | 51° |
| 2026-05-06 22:23 | 53.31907 | -2.33670 | 683 ft | 159 kts | 52° |
| 2026-05-06 22:23 | 53.32597 | -2.32309 | 479 ft | 152 kts | 47° |
| 2026-05-06 22:24 | 53.33248 | -2.30986 | 303 ft | 139 kts | 51° |
| 2026-05-06 22:24 | 53.33630 | -2.30102 | 232 ft | 13 kts | 42° |
| 2026-05-06 22:24 | 53.33585 | -2.30008 | 230 ft | 11 kts | 40° |